Time;durP1;ratioP1;P1;durP2;ratioP2;P2;SDS_P1;SDS_P2;PMS_P1;PMS_P2;Temp;Humidity;BMP_temperature;BMP_pressure;BME280_temperature;BME280_humidity;BME280_pressure;Samples;Min_cycle;Max_cycle;Signal;HPM_P1;HPM_P2
2022/11/06 00:01:12;;;;;;;28.45;15.95;;;9.90;99.90;;;;;;4928393;29;20052;-69
2022/11/06 00:03:38;;;;;;;23.98;15.63;;;9.90;99.90;;;;;;4928879;29;20059;-70
2022/11/06 00:08:51;;;;;;;17.88;13.38;;;9.90;99.90;;;;;;4929326;29;20524;-70
2022/11/06 00:11:17;;;;;;;21.60;16.52;;;9.90;99.90;;;;;;4931019;29;20110;-70
2022/11/06 00:13:46;;;;;;;28.85;14.05;;;9.90;99.90;;;;;;4931071;29;20512;-70
2022/11/06 00:16:13;;;;;;;23.90;13.90;;;9.90;99.90;;;;;;4930893;29;20047;-70
2022/11/06 00:18:40;;;;;;;25.75;15.50;;;9.90;99.90;;;;;;4929395;29;20513;-70
2022/11/06 00:21:14;;;;;;;23.58;14.00;;;9.90;99.90;;;;;;4928486;29;20055;-70
2022/11/06 00:23:40;;;;;;;26.42;14.70;;;9.90;99.90;;;;;;4930441;29;20044;-69
2022/11/06 00:26:11;;;;;;;23.35;15.15;;;9.80;99.90;;;;;;4929402;29;20044;-70
2022/11/06 00:28:37;;;;;;;29.00;16.33;;;9.80;99.90;;;;;;4942915;29;20043;-69
2022/11/06 00:31:15;;;;;;;26.35;15.00;;;9.80;99.90;;;;;;4930216;29;20109;-69
2022/11/06 00:33:41;;;;;;;24.15;15.93;;;9.80;99.90;;;;;;4928148;29;20043;-69
2022/11/06 00:36:09;;;;;;;24.02;16.17;;;9.80;99.90;;;;;;4928484;29;20044;-69
2022/11/06 00:38:35;;;;;;;22.25;15.68;;;9.80;99.90;;;;;;4930260;29;20098;-69
2022/11/06 00:41:06;;;;;;;26.20;16.17;;;9.70;99.90;;;;;;4928171;29;20075;-69
2022/11/06 00:43:34;;;;;;;24.30;15.32;;;9.80;99.90;;;;;;4928239;29;20051;-69
2022/11/06 00:46:01;;;;;;;23.35;15.70;;;9.80;99.90;;;;;;4929790;29;20103;-70
2022/11/06 00:48:27;;;;;;;26.23;16.30;;;9.70;99.90;;;;;;4929818;29;20094;-70
2022/11/06 00:50:53;;;;;;;29.92;16.40;;;9.70;99.90;;;;;;4933883;29;20415;-69
2022/11/06 00:53:18;;;;;;;27.60;17.02;;;9.70;99.90;;;;;;4929530;29;20490;-69
2022/11/06 00:55:44;;;;;;;30.50;16.00;;;9.70;99.90;;;;;;4927422;29;20051;-69
2022/11/06 00:58:10;;;;;;;24.38;15.50;;;9.60;99.90;;;;;;4928714;29;20130;-69
2022/11/06 01:00:35;;;;;;;25.85;15.15;;;9.60;99.90;;;;;;4929072;29;20056;-69
2022/11/06 01:03:01;;;;;;;24.42;15.70;;;9.70;99.90;;;;;;4929351;29;20094;-69
2022/11/06 01:05:27;;;;;;;30.17;17.25;;;9.70;99.90;;;;;;4927378;29;20130;-69
2022/11/06 01:07:52;;;;;;;22.73;15.57;;;9.60;99.90;;;;;;4928383;29;20488;-69
2022/11/06 01:10:18;;;;;;;25.25;16.73;;;9.60;99.90;;;;;;4928234;29;20051;-68
2022/11/06 01:12:43;;;;;;;28.40;17.05;;;9.60;99.90;;;;;;4929199;29;20167;-69
2022/11/06 01:15:09;;;;;;;27.35;16.45;;;9.60;99.90;;;;;;4929361;29;20641;-68
2022/11/06 01:17:35;;;;;;;31.33;17.25;;;9.60;99.90;;;;;;4929204;29;20680;-69
2022/11/06 01:20:03;;;;;;;30.58;16.95;;;9.60;99.90;;;;;;4929268;29;20071;-69
2022/11/06 01:22:29;;;;;;;27.95;17.38;;;9.60;99.90;;;;;;4930132;29;20392;-68
2022/11/06 01:24:54;;;;;;;24.75;18.00;;;9.60;99.90;;;;;;4944260;29;20052;-68
2022/11/06 01:27:20;;;;;;;25.63;16.90;;;9.60;99.90;;;;;;4929719;29;20047;-68
2022/11/06 01:29:48;;;;;;;31.13;17.67;;;9.60;99.90;;;;;;4928301;29;20051;-68
2022/11/06 01:32:14;;;;;;;28.77;16.48;;;9.60;99.90;;;;;;4927121;29;20059;-68
2022/11/06 01:34:40;;;;;;;25.17;17.85;;;9.60;99.90;;;;;;4930957;29;20051;-68
2022/11/06 01:37:05;;;;;;;29.98;17.13;;;9.60;99.90;;;;;;4933747;29;20062;-68
2022/11/06 01:39:31;;;;;;;34.88;18.52;;;9.60;99.90;;;;;;4934622;29;20043;-68
2022/11/06 01:41:57;;;;;;;30.98;17.90;;;9.60;99.90;;;;;;4931836;29;20134;-68
2022/11/06 01:44:32;;;;;;;31.25;18.52;;;9.50;99.90;;;;;;4930625;29;20519;-69
2022/11/06 01:46:59;;;;;;;42.90;20.48;;;9.50;99.90;;;;;;4933082;29;20055;-69
2022/11/06 01:49:27;;;;;;;35.40;20.35;;;9.50;99.90;;;;;;4931912;29;20039;-69
2022/11/06 01:52:01;;;;;;;28.92;19.67;;;9.50;99.90;;;;;;4936321;29;20058;-68
2022/11/06 01:54:29;;;;;;;30.42;18.85;;;9.40;99.90;;;;;;4934521;29;20540;-69
2022/11/06 01:56:58;;;;;;;29.48;18.60;;;9.40;99.90;;;;;;4952644;28;20411;-69
2022/11/06 01:59:27;;;;;;;35.20;19.45;;;9.40;99.90;;;;;;4932998;29;20043;-69
2022/11/06 02:01:53;;;;;;;32.63;19.85;;;9.40;99.90;;;;;;4931047;29;20131;-69
2022/11/06 02:04:24;;;;;;;31.05;18.65;;;9.40;99.90;;;;;;4932770;29;20143;-69
2022/11/06 02:06:51;;;;;;;48.88;18.00;;;9.40;99.90;;;;;;4931654;29;20094;-69
2022/11/06 02:09:18;;;;;;;31.85;20.15;;;9.40;99.90;;;;;;4928495;29;20527;-69
2022/11/06 02:11:49;;;;;;;28.13;19.17;;;9.50;99.90;;;;;;4933173;29;20051;-69
2022/11/06 02:14:33;;;;;;;35.13;18.90;;;9.30;99.90;;;;;;4931559;29;20401;-69
2022/11/06 02:17:07;;;;;;;30.02;18.33;;;9.30;99.90;;;;;;4929702;29;20052;-68
2022/11/06 02:19:51;;;;;;;34.22;18.98;;;9.30;99.90;;;;;;4945191;29;20055;-69
2022/11/06 02:22:46;;;;;;;31.52;19.92;;;9.30;99.90;;;;;;4936289;29;20456;-69
2022/11/06 02:25:31;;;;;;;33.05;19.80;;;9.30;99.90;;;;;;4931280;29;20413;-69
2022/11/06 02:28:02;;;;;;;32.72;19.60;;;9.30;99.90;;;;;;4927429;29;20043;-69
2022/11/06 02:30:33;;;;;;;33.05;19.10;;;9.30;99.90;;;;;;4932349;29;20063;-69
2022/11/06 02:33:04;;;;;;;35.95;18.42;;;9.30;99.90;;;;;;4932255;29;20052;-69
2022/11/06 02:35:41;;;;;;;27.67;16.90;;;9.30;99.90;;;;;;4929748;29;20405;-69
2022/11/06 02:38:10;;;;;;;32.58;18.85;;;9.30;99.90;;;;;;4925251;29;20056;-70
2022/11/06 02:40:41;;;;;;;37.17;20.92;;;9.30;99.90;;;;;;4930375;29;20453;-69
2022/11/06 02:43:08;;;;;;;37.65;19.50;;;9.40;99.90;;;;;;4923648;29;20126;-69
2022/11/06 02:45:46;;;;;;;34.47;20.67;;;9.40;99.90;;;;;;4931056;29;20418;-69
2022/11/06 02:48:15;;;;;;;38.30;20.23;;;9.20;99.90;;;;;;4924340;29;20051;-69
2022/11/06 02:50:45;;;;;;;32.88;18.63;;;9.30;99.90;;;;;;4939366;29;20082;-69
2022/11/06 02:53:15;;;;;;;31.27;19.05;;;9.30;99.90;;;;;;4930163;29;20096;-69
2022/11/06 02:55:45;;;;;;;44.22;21.13;;;9.20;99.90;;;;;;4932127;29;20063;-69
2022/11/06 02:58:32;;;;;;;39.45;20.27;;;9.20;99.90;;;;;;4930492;29;20044;-69
2022/11/06 03:01:05;;;;;;;38.53;20.20;;;9.30;99.90;;;;;;4931733;29;20082;-69
2022/11/06 03:03:34;;;;;;;36.05;21.33;;;9.30;99.90;;;;;;4942816;28;20055;-69
2022/11/06 03:06:09;;;;;;;33.00;20.52;;;9.20;99.90;;;;;;4941129;29;20690;-69
2022/11/06 03:08:53;;;;;;;31.05;17.48;;;9.20;99.90;;;;;;4931809;29;20062;-69
2022/11/06 03:11:29;;;;;;;32.00;19.35;;;9.30;99.90;;;;;;4943255;29;20907;-69
2022/11/06 03:14:15;;;;;;;29.17;18.65;;;9.20;99.90;;;;;;4932008;29;20145;-69
2022/11/06 03:17:04;;;;;;;12.98;7.70;;;9.20;99.90;;;;;;4931907;29;20138;-69
2022/11/06 03:19:36;;;;;;;25.38;8.48;;;9.20;99.90;;;;;;4926658;29;20074;-69
2022/11/06 03:22:11;;;;;;;13.55;8.15;;;9.10;99.90;;;;;;4933709;29;20052;-69
2022/11/06 03:24:43;;;;;;;14.23;6.38;;;9.10;99.90;;;;;;4930963;29;20492;-69
2022/11/06 03:27:22;;;;;;;18.75;5.50;;;9.10;99.90;;;;;;4928981;29;20782;-69
2022/11/06 03:30:00;;;;;;;20.38;5.47;;;9.10;99.90;;;;;;4929505;29;20449;-69
2022/11/06 03:32:32;;;;;;;30.70;17.35;;;9.10;99.90;;;;;;4930941;29;20054;-69
2022/11/06 03:35:08;;;;;;;38.25;19.13;;;9.10;99.90;;;;;;4945494;29;20106;-70
2022/11/06 03:37:38;;;;;;;9.00;5.55;;;9.10;99.90;;;;;;4930274;29;20039;-69
2022/11/06 03:40:10;;;;;;;25.98;6.47;;;9.10;99.90;;;;;;4930228;29;20055;-69
2022/11/06 03:42:38;;;;;;;25.83;17.92;;;9.10;99.90;;;;;;4931003;29;20476;-69
2022/11/06 03:45:13;;;;;;;24.63;16.77;;;9.00;99.90;;;;;;4930318;29;20540;-69
2022/11/06 03:47:47;;;;;;;27.45;18.02;;;9.10;99.90;;;;;;4931103;29;20049;-69
2022/11/06 03:50:30;;;;;;;29.27;16.15;;;9.20;99.90;;;;;;4929556;29;20050;-69
2022/11/06 03:53:15;;;;;;;29.35;16.50;;;9.10;99.90;;;;;;4941967;28;20405;-69
2022/11/06 03:55:56;;;;;;;32.08;17.58;;;9.10;99.90;;;;;;4927471;29;20491;-69
2022/11/06 03:58:26;;;;;;;26.90;17.83;;;9.10;99.90;;;;;;4941832;29;20055;-69
2022/11/06 04:00:55;;;;;;;39.15;18.52;;;9.10;99.90;;;;;;4929543;29;20055;-69
2022/11/06 04:03:47;;;;;;;33.38;18.95;;;9.10;99.90;;;;;;4929876;29;20094;-69
2022/11/06 04:06:25;;;;;;;18.20;8.48;;;9.10;99.90;;;;;;4890264;29;20481;-70
2022/11/06 04:14:27;;;;;;;34.45;16.48;;;9.40;99.90;;;;;;4929972;29;20062;-69
2022/11/06 04:16:58;;;;;;;28.40;17.75;;;9.00;99.90;;;;;;4929496;29;20055;-70
2022/11/06 04:19:23;;;;;;;28.40;13.68;;;9.00;99.90;;;;;;4930530;29;20083;-70
2022/11/06 04:22:17;;;;;;;29.08;17.23;;;9.00;99.90;;;;;;4930542;29;20043;-69
2022/11/06 04:27:51;;;;;;;40.15;18.40;;;9.10;99.90;;;;;;4921693;29;20513;-69
2022/11/06 04:30:17;;;;;;;28.15;17.63;;;9.00;99.90;;;;;;4930199;29;20512;-70
2022/11/06 04:33:08;;;;;;;40.15;15.30;;;9.10;99.90;;;;;;4928750;29;20091;-69
2022/11/06 04:35:36;;;;;;;11.23;6.93;;;9.10;99.90;;;;;;4929600;29;20293;-69
2022/11/06 04:38:15;;;;;;;12.48;5.75;;;9.10;99.90;;;;;;4929992;29;20815;-70
2022/11/06 04:40:52;;;;;;;;;;;9.00;99.90;;;;;;4916399;29;20054;-70
2022/11/06 04:43:36;;;;;;;22.90;14.98;;;9.00;99.90;;;;;;4927503;29;20017;-69
2022/11/06 04:46:03;;;;;;;10.85;5.05;;;9.00;99.90;;;;;;4918681;29;20094;-69
2022/11/06 04:48:30;;;;;;;19.77;15.45;;;9.00;99.90;;;;;;4930585;29;20075;-69
2022/11/06 04:51:00;;;;;;;25.42;14.88;;;9.00;99.90;;;;;;4930104;29;20086;-69
2022/11/06 04:53:28;;;;;;;35.70;15.60;;;9.00;99.90;;;;;;4939029;29;20175;-70
2022/11/06 04:55:58;;;;;;;21.38;14.52;;;9.10;99.90;;;;;;4930468;29;20067;-69
2022/11/06 04:58:24;;;;;;;27.33;15.57;;;9.10;99.90;;;;;;4928620;29;20159;-69
2022/11/06 05:00:51;;;;;;;29.25;14.50;;;9.10;99.90;;;;;;4926291;29;20823;-69
2022/11/06 05:03:17;;;;;;;24.10;14.68;;;9.10;99.90;;;;;;4928851;29;20090;-69
2022/11/06 05:05:43;;;;;;;34.70;15.52;;;9.10;99.90;;;;;;4929129;29;20201;-69
2022/11/06 05:08:17;;;;;;;22.95;14.15;;;9.10;99.90;;;;;;4930204;29;20147;-69
2022/11/06 05:10:43;;;;;;;34.22;15.82;;;9.10;99.90;;;;;;4925881;29;20090;-69
2022/11/06 05:13:10;;;;;;;34.33;15.50;;;9.10;99.90;;;;;;4932768;29;20059;-69
2022/11/06 05:15:36;;;;;;;23.75;15.55;;;9.10;99.90;;;;;;4933024;29;20605;-69
2022/11/06 05:18:02;;;;;;;9.57;5.38;;;9.10;99.90;;;;;;4934020;29;20056;-69
2022/11/06 05:20:28;;;;;;;29.67;15.40;;;9.20;99.90;;;;;;4948272;29;20103;-70
2022/11/06 05:22:56;;;;;;;13.38;5.78;;;9.10;99.90;;;;;;4933725;29;20047;-69
2022/11/06 05:25:26;;;;;;;;;;;9.10;99.90;;;;;;4922002;29;20058;-69
2022/11/06 05:27:52;;;;;;;26.40;13.55;;;9.10;99.90;;;;;;4932102;29;19933;-69
2022/11/06 05:30:18;;;;;;;24.27;13.45;;;9.00;99.90;;;;;;4932061;29;20048;-69
2022/11/06 05:32:43;;;;;;;31.45;15.38;;;9.10;99.90;;;;;;4933053;29;20060;-69
2022/11/06 05:35:09;;;;;;;25.25;13.95;;;9.10;99.90;;;;;;4932057;29;20409;-69
2022/11/06 05:37:35;;;;;;;24.00;14.55;;;9.10;99.90;;;;;;4931996;29;20056;-69
2022/11/06 05:40:01;;;;;;;18.25;12.55;;;9.10;99.90;;;;;;4931180;29;20071;-69
2022/11/06 05:42:27;;;;;;;28.98;12.98;;;9.10;99.90;;;;;;4932416;29;20051;-69
2022/11/06 05:44:53;;;;;;;8.38;4.82;;;9.00;99.90;;;;;;4931914;29;20062;-69
2022/11/06 05:47:18;;;;;;;10.77;6.80;;;9.00;99.90;;;;;;4932739;29;20051;-69
2022/11/06 05:49:44;;;;;;;22.38;12.07;;;8.90;99.90;;;;;;4932810;29;20043;-69
2022/11/06 05:52:10;;;;;;;18.23;12.10;;;9.00;99.90;;;;;;4931101;29;20052;-69
2022/11/06 05:54:36;;;;;;;37.80;8.38;;;9.00;99.90;;;;;;4930910;29;20055;-69
2022/11/06 05:57:02;;;;;;;22.42;12.10;;;9.00;99.90;;;;;;4928574;29;20043;-68
2022/11/06 05:59:28;;;;;;;28.08;12.55;;;9.00;99.90;;;;;;4928497;29;20378;-69
2022/11/06 06:01:53;;;;;;;18.05;10.93;;;9.00;99.90;;;;;;4931264;29;20052;-69
2022/11/06 06:04:19;;;;;;;9.60;4.60;;;9.00;99.90;;;;;;4932635;29;20417;-69
2022/11/06 06:06:45;;;;;;;19.90;11.48;;;8.80;99.90;;;;;;4932509;29;20541;-69
2022/11/06 06:09:10;;;;;;;23.23;11.15;;;9.40;99.90;;;;;;4931315;29;20055;-69
2022/11/06 06:11:36;;;;;;;20.80;12.82;;;9.00;99.90;;;;;;4932483;29;20487;-69
2022/11/06 06:14:02;;;;;;;19.38;10.93;;;9.00;99.90;;;;;;4930990;29;20032;-69
2022/11/06 06:16:28;;;;;;;23.98;11.93;;;9.00;99.90;;;;;;4932903;29;20185;-69
2022/11/06 06:18:53;;;;;;;21.13;10.02;;;9.00;99.90;;;;;;4931420;29;20815;-69
2022/11/06 06:21:19;;;;;;;20.95;11.82;;;9.00;99.90;;;;;;4945102;28;20075;-69
2022/11/06 06:23:45;;;;;;;18.25;11.38;;;9.10;99.90;;;;;;4929342;29;20387;-70
2022/11/06 06:26:10;;;;;;;20.77;10.77;;;9.00;99.90;;;;;;4930827;29;20048;-69
2022/11/06 06:28:36;;;;;;;22.10;11.68;;;9.10;99.90;;;;;;4931203;29;20111;-69
2022/11/06 06:31:06;;;;;;;17.73;10.65;;;9.10;99.90;;;;;;4931478;29;20067;-69
2022/11/06 06:33:32;;;;;;;29.77;12.68;;;9.10;99.90;;;;;;4947459;29;20055;-69
2022/11/06 06:35:57;;;;;;;21.60;9.50;;;9.10;99.90;;;;;;4927515;29;20050;-69
2022/11/06 06:38:24;;;;;;;23.27;11.05;;;9.10;99.90;;;;;;4929493;29;20040;-69
2022/11/06 06:40:50;;;;;;;25.60;11.40;;;9.30;99.90;;;;;;4931283;29;20523;-69
2022/11/06 06:43:16;;;;;;;10.13;4.43;;;9.10;99.90;;;;;;4930779;29;20048;-69
2022/11/06 06:45:41;;;;;;;24.73;10.90;;;9.00;99.90;;;;;;4929863;29;20039;-69
2022/11/06 06:48:08;;;;;;;22.52;10.50;;;9.00;99.90;;;;;;4931761;29;20040;-69
2022/11/06 06:50:33;;;;;;;18.33;9.63;;;9.10;99.90;;;;;;4932422;29;20077;-69
2022/11/06 06:53:00;;;;;;;18.45;10.40;;;9.10;99.90;;;;;;4943825;29;20516;-69
2022/11/06 06:55:25;;;;;;;16.95;9.43;;;9.10;99.90;;;;;;4932604;29;20712;-69
2022/11/06 06:57:56;;;;;;;9.50;4.35;;;9.10;99.90;;;;;;4945322;28;20102;-69
2022/11/06 07:00:22;;;;;;;20.35;9.68;;;9.10;99.90;;;;;;4930854;29;20056;-69
2022/11/06 07:02:47;;;;;;;9.55;4.22;;;9.10;99.90;;;;;;4932162;29;20111;-69
2022/11/06 07:05:13;;;;;;;18.33;10.13;;;9.10;99.90;;;;;;4930576;29;20044;-69
2022/11/06 07:07:39;;;;;;;17.08;9.80;;;9.20;99.90;;;;;;4931816;29;20051;-69
2022/11/06 07:10:05;;;;;;;16.65;9.68;;;9.20;99.90;;;;;;4930513;29;20496;-69
2022/11/06 07:12:30;;;;;;;20.40;9.57;;;9.30;99.90;;;;;;4931466;29;20068;-69
2022/11/06 07:14:56;;;;;;;9.45;3.92;;;9.30;99.90;;;;;;4931731;29;20043;-69
2022/11/06 07:17:22;;;;;;;18.00;9.15;;;9.30;99.90;;;;;;4931224;29;20051;-69
2022/11/06 07:19:47;;;;;;;18.33;8.45;;;9.30;99.90;;;;;;4929207;29;20039;-69
2022/11/06 07:22:13;;;;;;;13.00;8.45;;;9.30;99.90;;;;;;4925201;29;20047;-69
2022/11/06 07:24:39;;;;;;;15.90;8.73;;;9.30;99.90;;;;;;4929884;29;20042;-69
2022/11/06 07:27:04;;;;;;;22.95;9.07;;;9.30;99.90;;;;;;4930971;29;20543;-69
2022/11/06 07:29:30;;;;;;;21.75;8.82;;;9.40;99.90;;;;;;4930583;29;20046;-69
2022/11/06 07:31:55;;;;;;;16.17;8.00;;;9.40;99.90;;;;;;4929005;29;20111;-69
2022/11/06 07:34:21;;;;;;;23.48;9.27;;;9.40;99.90;;;;;;4929412;29;20062;-69
2022/11/06 07:36:47;;;;;;;23.25;8.88;;;9.40;99.90;;;;;;4928326;29;20059;-69
2022/11/06 07:39:12;;;;;;;17.45;8.98;;;9.40;99.90;;;;;;4927687;29;20082;-69
2022/11/06 07:41:38;;;;;;;19.58;9.05;;;9.50;99.90;;;;;;4930302;29;20071;-70
2022/11/06 07:44:04;;;;;;;14.35;8.88;;;9.40;99.90;;;;;;4935609;29;20048;-69
2022/11/06 07:46:30;;;;;;;20.13;4.15;;;9.50;99.90;;;;;;4929994;29;20445;-69
2022/11/06 07:48:55;;;;;;;16.95;9.23;;;9.50;99.90;;;;;;4928256;28;20515;-68
2022/11/06 07:51:21;;;;;;;16.65;8.90;;;9.50;99.90;;;;;;4929776;29;20043;-69
2022/11/06 07:53:46;;;;;;;19.85;8.40;;;9.50;99.90;;;;;;4930032;29;20461;-69
2022/11/06 07:56:13;;;;;;;27.73;8.40;;;9.50;99.90;;;;;;4932358;29;20643;-69
2022/11/06 07:58:39;;;;;;;28.75;9.68;;;9.60;99.90;;;;;;4929879;29;20035;-68
2022/11/06 08:01:05;;;;;;;21.50;7.75;;;9.80;99.90;;;;;;4930012;29;20073;-69
2022/11/06 08:03:31;;;;;;;11.00;7.57;;;9.70;99.90;;;;;;4929522;29;20135;-70
2022/11/06 08:05:57;;;;;;;22.15;7.88;;;9.70;99.90;;;;;;4924899;29;20039;-69
2022/11/06 08:08:23;;;;;;;18.35;8.50;;;9.80;99.90;;;;;;4937076;29;20055;-69
2022/11/06 08:10:50;;;;;;;15.05;7.45;;;9.70;99.90;;;;;;4929709;29;20289;-69
2022/11/06 08:13:17;;;;;;;11.95;6.93;;;9.70;99.90;;;;;;4928820;29;20043;-68
2022/11/06 08:15:43;;;;;;;17.83;7.45;;;9.80;99.90;;;;;;4927689;29;20035;-69
2022/11/06 08:18:09;;;;;;;13.75;7.55;;;9.80;99.90;;;;;;4927067;29;20048;-69
2022/11/06 08:20:37;;;;;;;15.68;7.55;;;9.80;99.90;;;;;;4930020;29;20409;-69
2022/11/06 08:23:05;;;;;;;24.83;7.47;;;9.90;99.90;;;;;;4930025;29;20056;-69
2022/11/06 08:25:31;;;;;;;19.30;7.43;;;9.90;99.90;;;;;;4930284;29;21003;-69
2022/11/06 08:27:59;;;;;;;18.35;7.22;;;10.00;99.90;;;;;;4930357;29;20043;-69
2022/11/06 08:30:25;;;;;;;20.08;8.50;;;9.90;99.90;;;;;;4929009;29;20039;-75
2022/11/06 08:32:51;;;;;;;13.75;7.65;;;9.90;99.90;;;;;;4926952;29;20064;-75
2022/11/06 08:35:17;;;;;;;15.73;7.60;;;10.00;99.90;;;;;;4943418;29;20055;-76
2022/11/06 08:37:43;;;;;;;21.98;6.75;;;10.00;99.90;;;;;;4929755;29;20122;-76
2022/11/06 08:40:11;;;;;;;26.88;8.00;;;10.10;99.90;;;;;;4929084;29;20051;-76
2022/11/06 08:42:36;;;;;;;16.17;6.65;;;10.10;99.90;;;;;;4930115;29;20052;-76
2022/11/06 08:45:03;;;;;;;14.55;7.22;;;10.10;99.90;;;;;;4931884;29;20043;-76
2022/11/06 08:47:28;;;;;;;13.05;7.15;;;10.10;99.90;;;;;;4932105;29;20572;-76
2022/11/06 08:49:54;;;;;;;16.92;6.60;;;10.10;99.90;;;;;;4933057;29;20051;-77
2022/11/06 08:52:20;;;;;;;20.58;7.15;;;10.10;99.90;;;;;;4934949;29;20050;-77
2022/11/06 08:54:46;;;;;;;17.50;6.55;;;10.10;99.90;;;;;;4932955;29;20396;-76
2022/11/06 08:57:12;;;;;;;17.52;6.05;;;10.20;99.90;;;;;;4932878;29;20071;-77
2022/11/06 08:59:38;;;;;;;63.63;9.73;;;10.20;99.90;;;;;;4932295;29;20059;-77
2022/11/06 09:02:03;;;;;;;112.13;15.10;;;10.10;99.90;;;;;;4932156;29;20084;-77
2022/11/06 09:04:29;;;;;;;13.82;4.47;;;10.30;99.90;;;;;;4932940;29;20899;-76
2022/11/06 09:06:57;;;;;;;11.52;4.43;;;10.00;99.90;;;;;;4932795;29;20074;-76
2022/11/06 09:09:30;;;;;;;25.02;8.30;;;10.10;99.90;;;;;;4931142;29;20065;-75
2022/11/06 09:11:57;;;;;;;18.13;7.07;;;10.10;99.90;;;;;;4932000;29;20393;-74
2022/11/06 09:14:22;;;;;;;16.30;7.75;;;10.30;99.90;;;;;;4933207;29;20059;-75
2022/11/06 09:16:48;;;;;;;15.45;7.78;;;10.10;99.90;;;;;;4932126;29;20051;-75
2022/11/06 09:19:13;;;;;;;17.73;6.88;;;10.20;99.90;;;;;;4930513;29;20477;-74
2022/11/06 09:21:39;;;;;;;24.25;7.78;;;10.20;99.90;;;;;;4947746;29;20044;-75
2022/11/06 09:24:05;;;;;;;20.45;7.88;;;10.40;99.90;;;;;;4932016;29;20083;-76
2022/11/06 09:26:30;;;;;;;23.67;9.30;;;10.30;99.90;;;;;;4932141;29;20061;-68
2022/11/06 09:28:57;;;;;;;14.82;7.85;;;10.40;99.90;;;;;;4931883;29;20036;-68
2022/11/06 09:31:23;;;;;;;17.45;7.00;;;10.60;99.90;;;;;;4930340;29;20120;-68
2022/11/06 09:33:49;;;;;;;15.93;7.38;;;10.50;99.90;;;;;;4931616;29;20732;-68
2022/11/06 09:36:15;;;;;;;19.42;7.55;;;10.50;99.90;;;;;;4932297;28;20071;-68
2022/11/06 09:38:41;;;;;;;17.92;10.93;;;10.60;99.90;;;;;;4931905;29;20044;-68
2022/11/06 09:41:46;;;;;;;18.92;10.23;;;10.80;99.90;;;;;;4931437;29;20046;-68
2022/11/06 09:44:45;;;;;;;16.55;8.90;;;10.90;99.90;;;;;;4930138;29;20107;-68
2022/11/06 09:47:19;;;;;;;14.52;8.60;;;10.90;99.90;;;;;;4928987;29;20070;-68
2022/11/06 09:49:52;;;;;;;18.23;7.45;;;11.40;99.90;;;;;;4928800;29;20083;-68
2022/11/06 09:52:23;;;;;;;14.88;10.25;;;11.00;99.90;;;;;;4926573;29;20121;-68
2022/11/06 09:54:56;;;;;;;18.45;8.55;;;11.10;99.90;;;;;;4929212;29;20046;-68
2022/11/06 09:57:34;;;;;;;12.02;6.78;;;11.10;99.90;;;;;;4932958;29;20074;-68
2022/11/06 10:00:02;;;;;;;13.50;6.97;;;11.20;99.90;;;;;;4920223;29;20067;-68
2022/11/06 10:02:41;;;;;;;15.15;8.52;;;11.30;99.90;;;;;;4928762;29;20102;-68
2022/11/06 10:05:10;;;;;;;13.73;6.43;;;11.40;99.90;;;;;;4931744;29;20047;-68
2022/11/06 10:07:38;;;;;;;10.27;5.95;;;11.40;99.90;;;;;;4931922;29;20122;-68
2022/11/06 10:10:05;;;;;;;;;;;11.50;99.90;;;;;;4930450;29;20449;-68
2022/11/06 10:13:17;;;;;;;16.60;5.27;;;11.50;99.90;;;;;;4934718;29;19929;-68
2022/11/06 10:16:15;;;;;;;14.30;7.45;;;11.60;99.90;;;;;;4923326;29;20064;-68
2022/11/06 10:19:02;;;;;;;20.45;7.97;;;11.60;99.90;;;;;;4906094;29;20184;-68
2022/11/06 10:21:41;;;;;;;14.98;6.85;;;11.70;99.90;;;;;;4931815;29;20058;-69
2022/11/06 10:24:22;;;;;;;15.52;6.25;;;11.80;99.90;;;;;;4932223;29;20056;-69
2022/11/06 10:26:55;;;;;;;13.18;5.75;;;11.90;99.90;;;;;;4922287;29;20123;-68
2022/11/06 10:29:46;;;;;;;14.48;5.68;;;12.00;99.90;;;;;;4930542;29;20047;-68
2022/11/06 10:32:29;;;;;;;16.88;6.30;;;12.00;99.90;;;;;;4931995;29;20059;-68
2022/11/06 10:34:58;;;;;;;12.15;5.20;;;12.00;99.90;;;;;;4926903;29;20048;-68
2022/11/06 10:37:34;;;;;;;14.27;5.40;;;12.10;99.90;;;;;;4932394;29;20091;-68
2022/11/06 10:40:04;;;;;;;30.33;5.75;;;12.00;99.90;;;;;;4931376;29;20054;-68
2022/11/06 10:42:39;;;;;;;15.63;6.13;;;11.90;99.90;;;;;;4932075;29;20043;-68
2022/11/06 10:45:17;;;;;;;11.15;7.28;;;11.80;99.90;;;;;;4930271;29;20063;-68
2022/11/06 10:47:48;;;;;;;17.27;11.48;;;11.80;99.90;;;;;;4931702;29;20416;-68
2022/11/06 10:50:16;;;;;;;12.93;6.93;;;11.80;99.90;;;;;;4932944;29;20063;-68
2022/11/06 10:53:01;;;;;;;13.75;6.95;;;11.70;99.90;;;;;;4930637;29;20436;-68
2022/11/06 10:55:33;;;;;;;19.23;6.78;;;11.70;99.90;;;;;;4931581;29;20051;-68
2022/11/06 10:58:10;;;;;;;16.02;6.65;;;11.70;99.90;;;;;;4930741;29;20051;-68
2022/11/06 11:00:37;;;;;;;19.83;7.10;;;11.80;99.90;;;;;;4931652;29;20054;-68
2022/11/06 11:03:06;;;;;;;11.93;5.50;;;11.90;99.90;;;;;;4931865;29;20060;-68
2022/11/06 11:05:40;;;;;;;22.85;6.55;;;11.80;99.90;;;;;;4913321;29;20054;-68
2022/11/06 11:08:27;;;;;;;16.88;6.13;;;11.90;99.90;;;;;;4923754;29;20086;-68
2022/11/06 11:11:04;;;;;;;19.67;6.85;;;12.10;99.90;;;;;;4931027;29;20043;-68
2022/11/06 11:13:29;;;;;;;13.55;5.97;;;12.20;99.90;;;;;;4931350;29;20493;-68
2022/11/06 11:15:55;;;;;;;8.98;4.90;;;12.20;99.90;;;;;;4931819;29;20078;-68
2022/11/06 11:18:29;;;;;;;17.67;6.20;;;12.20;99.90;;;;;;4931437;29;20051;-68
2022/11/06 11:21:06;;;;;;;16.48;5.30;;;12.20;99.90;;;;;;4946280;28;20040;-67
2022/11/06 11:23:31;;;;;;;10.10;4.80;;;12.20;99.90;;;;;;4930976;29;20138;-68
2022/11/06 11:26:17;;;;;;;14.02;5.22;;;12.20;99.90;;;;;;4929340;29;20180;-67
2022/11/06 11:28:53;;;;;;;10.32;5.05;;;12.30;99.90;;;;;;4926229;29;20517;-68
2022/11/06 11:31:19;;;;;;;15.88;5.05;;;12.20;99.90;;;;;;4931195;29;20060;-68
2022/11/06 11:33:52;;;;;;;10.20;3.92;;;12.30;99.90;;;;;;4929344;29;20060;-67
2022/11/06 11:36:19;;;;;;;16.75;5.63;;;12.30;99.90;;;;;;4930705;29;20044;-68
2022/11/06 11:38:45;;;;;;;17.88;6.40;;;12.30;99.90;;;;;;4945433;29;20055;-68
2022/11/06 11:41:22;;;;;;;12.95;7.13;;;12.30;99.90;;;;;;4931173;29;20047;-68
2022/11/06 11:44:03;;;;;;;25.67;12.97;;;12.30;99.90;;;;;;4924589;29;20123;-68
2022/11/06 11:46:30;;;;;;;21.30;13.05;;;12.40;99.90;;;;;;4930016;29;20788;-67
2022/11/06 11:48:57;;;;;;;8.40;5.18;;;12.50;99.90;;;;;;4930372;29;20032;-68
2022/11/06 11:51:45;;;;;;;12.07;5.55;;;12.50;99.90;;;;;;4937766;29;20048;-68
2022/11/06 11:54:11;;;;;;;11.50;5.10;;;12.50;99.90;;;;;;4930881;29;20183;-68
2022/11/06 11:56:56;;;;;;;9.73;5.32;;;12.60;99.90;;;;;;4933932;29;20130;-68
2022/11/06 11:59:27;;;;;;;16.02;8.18;;;12.60;99.90;;;;;;4925917;29;20051;-68
2022/11/06 12:01:55;;;;;;;15.40;5.90;;;12.60;99.90;;;;;;4928907;29;20070;-68
2022/11/06 12:04:29;;;;;;;10.13;4.30;;;12.70;99.90;;;;;;4924558;29;20062;-68
2022/11/06 12:07:04;;;;;;;10.73;4.55;;;12.70;99.90;;;;;;4930777;29;20044;-68
2022/11/06 12:09:41;;;;;;;8.25;4.47;;;12.70;99.90;;;;;;4930503;29;20501;-68
2022/11/06 12:12:18;;;;;;;9.57;4.70;;;12.80;99.90;;;;;;4926485;29;20055;-68
2022/11/06 12:14:44;;;;;;;13.65;5.22;;;12.70;99.90;;;;;;4926622;29;20043;-68
2022/11/06 12:17:20;;;;;;;27.20;4.95;;;12.80;99.90;;;;;;4924858;28;20043;-68
2022/11/06 12:19:52;;;;;;;10.10;4.68;;;12.80;99.90;;;;;;4925431;29;20051;-68
2022/11/06 12:22:28;;;;;;;9.25;4.03;;;12.80;99.90;;;;;;4930250;29;20476;-68
2022/11/06 12:24:59;;;;;;;8.77;4.18;;;12.70;99.90;;;;;;4929992;29;20416;-68
2022/11/06 12:27:35;;;;;;;16.40;5.57;;;12.70;99.90;;;;;;4930466;29;20062;-67
2022/11/06 12:30:14;;;;;;;8.18;4.05;;;12.70;99.90;;;;;;4930035;29;20124;-68
2022/11/06 12:33:14;;;;;;;14.85;4.25;;;12.80;99.90;;;;;;4930366;29;20063;-68
2022/11/06 12:36:03;;;;;;;7.38;3.75;;;12.80;99.90;;;;;;4923574;29;20700;-67
2022/11/06 12:38:40;;;;;;;14.82;4.63;;;12.80;99.90;;;;;;4926890;29;20051;-68
2022/11/06 12:41:22;;;;;;;7.20;4.85;;;12.80;99.90;;;;;;4927772;29;20036;-67
2022/11/06 12:43:50;;;;;;;9.73;4.72;;;12.80;99.90;;;;;;4929617;29;20050;-67
2022/11/06 12:46:43;;;;;;;15.60;5.30;;;12.80;99.90;;;;;;4930506;29;20050;-67
2022/11/06 12:49:18;;;;;;;9.85;3.88;;;12.70;99.90;;;;;;4929296;29;20314;-68
2022/11/06 12:52:22;;;;;;;8.65;4.55;;;12.70;99.90;;;;;;4955554;28;20131;-67
2022/11/06 12:55:16;;;;;;;12.82;4.35;;;12.70;99.90;;;;;;4927474;29;20040;-67
2022/11/06 12:57:56;;;;;;;12.98;5.00;;;12.70;99.90;;;;;;4924674;29;20158;-68
2022/11/06 13:00:26;;;;;;;10.70;5.65;;;12.70;99.90;;;;;;4928221;29;20563;-68
2022/11/06 13:03:22;;;;;;;39.05;15.90;;;12.70;99.90;;;;;;4925061;29;20497;-67
2022/11/06 13:05:59;;;;;;;29.15;9.90;;;12.70;99.90;;;;;;4929208;29;20071;-67
2022/11/06 13:08:46;;;;;;;18.98;8.15;;;12.70;99.90;;;;;;4925222;29;20071;-67
2022/11/06 13:11:38;;;;;;;17.00;6.03;;;12.60;99.90;;;;;;4928157;29;20091;-67